createdAt,value
2022-08-30T00:02:03.527Z,73.13
2022-08-30T00:04:30.168Z,73.25
2022-08-30T00:06:57.225Z,73.76
2022-08-30T00:09:24.238Z,74.20
2022-08-30T00:11:52.125Z,74.45
2022-08-30T00:14:20.371Z,74.74
2022-08-30T00:16:47.309Z,74.97
2022-08-30T00:19:13.969Z,75.15
2022-08-30T00:21:40.751Z,75.05
2022-08-30T00:24:08.136Z,75.29
2022-08-30T00:26:34.820Z,75.65
2022-08-30T00:29:01.452Z,75.33
2022-08-30T00:31:28.268Z,75.70
2022-08-30T00:33:54.890Z,76.35
2022-08-30T00:36:21.497Z,76.38
2022-08-30T00:38:48.069Z,76.64
2022-08-30T00:41:14.720Z,76.66
2022-08-30T00:43:41.450Z,76.75
2022-08-30T00:46:10.276Z,76.56
2022-08-30T00:48:44.828Z,76.71
2022-08-30T00:51:14.240Z,76.75
2022-08-30T00:53:46.406Z,76.75
2022-08-30T00:56:13.994Z,76.59
2022-08-30T00:58:45.535Z,76.74
2022-08-30T01:01:12.619Z,76.59
2022-08-30T01:03:39.571Z,76.59
2022-08-30T01:06:07.618Z,76.54
2022-08-30T01:08:35.370Z,76.34
2022-08-30T01:11:03.782Z,76.25
2022-08-30T01:13:31.689Z,76.19
2022-08-30T01:16:00.083Z,76.12
2022-08-30T01:18:27.488Z,76.09
2022-08-30T01:21:03.712Z,76.27
2022-08-30T01:23:32.355Z,76.23
2022-08-30T01:26:00.382Z,76.26
2022-08-30T01:28:29.841Z,76.08
2022-08-30T01:30:56.721Z,76.40
2022-08-30T01:33:23.988Z,76.42
2022-08-30T01:36:06.379Z,76.37
2022-08-30T01:38:42.231Z,76.64
2022-08-30T01:41:19.784Z,76.67
2022-08-30T01:43:47.485Z,76.88
2022-08-30T01:46:16.590Z,77.59
2022-08-30T01:48:50.233Z,77.62
2022-08-30T01:51:23.153Z,77.77
2022-08-30T01:53:50.084Z,78.38
2022-08-30T01:56:16.764Z,78.48
2022-08-30T01:58:44.784Z,78.49
2022-08-30T02:01:15.148Z,78.35
2022-08-30T02:03:44.338Z,78.44
2022-08-30T02:06:14.165Z,78.57
2022-08-30T02:08:42.093Z,78.37
2022-08-30T02:11:09.513Z,78.53
2022-08-30T02:13:37.691Z,78.89
2022-08-30T02:16:06.621Z,78.88
2022-08-30T02:18:35.009Z,79.09
2022-08-30T02:21:02.813Z,78.95
2022-08-30T02:23:29.486Z,78.79
2022-08-30T02:25:56.577Z,78.82
2022-08-30T02:28:23.505Z,78.78
2022-08-30T02:30:52.814Z,78.74
2022-08-30T02:33:19.756Z,79.02
2022-08-30T02:35:46.594Z,79.18
2022-08-30T02:38:14.012Z,79.11
2022-08-30T02:40:40.679Z,79.00
2022-08-30T02:43:07.396Z,79.02
2022-08-30T02:45:34.054Z,78.98
2022-08-30T02:48:00.686Z,79.11
2022-08-30T02:50:27.422Z,79.32
2022-08-30T02:52:54.435Z,79.11
2022-08-30T02:55:22.590Z,79.29
2022-08-30T02:57:49.167Z,79.39
2022-08-30T03:00:18.938Z,79.26
2022-08-30T03:02:46.518Z,79.09
2022-08-30T03:05:15.432Z,79.01
2022-08-30T03:07:43.109Z,78.85
2022-08-30T03:10:10.933Z,79.08
2022-08-30T03:12:38.255Z,79.08
2022-08-30T03:15:06.566Z,78.89
2022-08-30T03:17:33.361Z,79.18
2022-08-30T03:20:02.244Z,79.03
2022-08-30T03:22:29.546Z,79.29
2022-08-30T03:24:59.552Z,79.15
2022-08-30T03:27:28.100Z,79.07
2022-08-30T03:29:55.296Z,79.27
2022-08-30T03:32:22.391Z,78.98
2022-08-30T03:34:49.078Z,79.47
2022-08-30T03:37:16.132Z,79.29
2022-08-30T03:39:43.020Z,79.21
2022-08-30T03:42:11.308Z,79.46
2022-08-30T03:44:38.112Z,79.43
2022-08-30T03:47:05.422Z,79.96
2022-08-30T03:49:32.086Z,79.93
2022-08-30T03:51:58.758Z,79.95
2022-08-30T03:54:25.544Z,80.37
2022-08-30T03:56:52.249Z,80.16
2022-08-30T03:59:18.889Z,80.47
2022-08-30T04:01:46.008Z,80.83
2022-08-30T04:04:15.361Z,80.70
2022-08-30T04:06:44.039Z,80.61
2022-08-30T04:09:10.774Z,81.12
2022-08-30T04:11:38.002Z,80.67
2022-08-30T04:14:04.677Z,80.59
2022-08-30T04:16:31.325Z,80.59
2022-08-30T04:18:58.012Z,80.53
2022-08-30T04:21:24.639Z,80.22
2022-08-30T04:23:51.209Z,79.88
2022-08-30T04:26:17.860Z,79.95
2022-08-30T04:28:44.474Z,79.93
2022-08-30T04:31:15.133Z,80.27
2022-08-30T04:33:42.058Z,80.02
2022-08-30T04:36:10.919Z,80.15
2022-08-30T04:38:37.935Z,80.06
2022-08-30T04:41:15.544Z,80.29
2022-08-30T04:43:45.503Z,80.29
2022-08-30T04:46:14.054Z,80.23
2022-08-30T04:48:40.942Z,80.16
2022-08-30T04:51:09.994Z,79.63
2022-08-30T04:53:37.750Z,79.47
2022-08-30T04:56:10.012Z,79.75
2022-08-30T04:58:36.870Z,79.84
2022-08-30T05:01:04.677Z,79.96
2022-08-30T05:03:31.434Z,80.04
2022-08-30T05:05:58.372Z,80.13
2022-08-30T05:08:25.131Z,79.84
2022-08-30T05:10:52.861Z,79.48
2022-08-30T05:13:25.945Z,79.68
2022-08-30T05:16:02.937Z,79.80
2022-08-30T05:18:29.660Z,79.75
2022-08-30T05:21:14.003Z,79.82
2022-08-30T05:23:41.542Z,79.50
2022-08-30T05:26:18.691Z,79.58
2022-08-30T05:28:45.848Z,79.69
2022-08-30T05:31:25.227Z,79.43
2022-08-30T05:33:53.987Z,79.52
2022-08-30T05:36:25.055Z,79.17
2022-08-30T05:38:51.796Z,79.15
2022-08-30T05:41:20.575Z,79.00
2022-08-30T05:43:48.588Z,78.69
2022-08-30T05:46:19.939Z,78.62
2022-08-30T05:48:47.787Z,78.74
2022-08-30T05:51:25.579Z,78.50
2022-08-30T05:53:53.884Z,78.38
2022-08-30T05:56:24.722Z,78.36
2022-08-30T05:58:52.620Z,78.26
2022-08-30T06:01:23.566Z,78.07
2022-08-30T06:03:50.793Z,77.96
2022-08-30T06:06:17.522Z,77.96
2022-08-30T06:08:46.197Z,78.04
2022-08-30T06:11:19.586Z,77.88
2022-08-30T06:13:47.488Z,77.88
2022-08-30T06:16:16.033Z,77.91
2022-08-30T06:18:42.889Z,78.04
2022-08-30T06:21:16.696Z,77.81
2022-08-30T06:23:44.668Z,77.63
2022-08-30T06:26:11.553Z,77.51
2022-08-30T06:28:38.600Z,76.84
2022-08-30T06:31:13.343Z,76.70
2022-08-30T06:33:40.526Z,75.99
2022-08-30T06:36:10.806Z,75.51
2022-08-30T06:38:38.657Z,75.00
2022-08-30T06:41:10.278Z,74.66
2022-08-30T06:43:37.482Z,74.60
2022-08-30T06:46:05.992Z,74.31
2022-08-30T06:48:33.043Z,74.18
2022-08-30T06:50:59.672Z,74.11
2022-08-30T06:53:29.635Z,73.64
2022-08-30T06:56:00.796Z,73.51
2022-08-30T06:58:29.550Z,73.18
2022-08-30T07:00:56.405Z,73.03
2022-08-30T07:03:23.439Z,72.89
2022-08-30T07:05:50.289Z,72.67
2022-08-30T07:08:18.001Z,71.96
2022-08-30T07:10:45.390Z,71.38
2022-08-30T07:13:12.824Z,71.34
2022-08-30T07:15:42.777Z,71.25
2022-08-30T07:18:29.238Z,71.32
2022-08-30T07:20:56.635Z,70.95
2022-08-30T07:23:23.947Z,71.00
2022-08-30T07:25:50.649Z,71.15
2022-08-30T07:28:17.396Z,71.06
2022-08-30T07:30:44.326Z,70.51
2022-08-30T07:33:10.965Z,70.56
2022-08-30T07:35:37.721Z,70.46
2022-08-30T07:38:04.316Z,70.16
2022-08-30T07:40:31.008Z,70.38
2022-08-30T07:42:58.923Z,69.95
2022-08-30T07:45:25.538Z,69.73
2022-08-30T07:47:52.286Z,69.54
2022-08-30T07:50:18.923Z,69.12
2022-08-30T07:52:45.491Z,68.53
2022-08-30T07:55:12.095Z,68.17
2022-08-30T07:57:38.706Z,67.76
2022-08-30T08:00:06.473Z,66.86
2022-08-30T08:02:40.715Z,67.26
2022-08-30T08:05:08.437Z,67.14
2022-08-30T08:07:35.634Z,66.91
2022-08-30T08:10:02.891Z,66.44
2022-08-30T08:12:30.008Z,66.62
2022-08-30T08:14:56.657Z,66.45
2022-08-30T08:17:23.255Z,65.85
2022-08-30T08:19:49.916Z,65.34
2022-08-30T08:22:21.385Z,64.87
2022-08-30T08:24:49.361Z,64.77
2022-08-30T08:27:16.682Z,64.72
2022-08-30T08:29:43.558Z,64.86
2022-08-30T08:32:10.169Z,64.71
2022-08-30T08:34:37.038Z,64.04
2022-08-30T08:37:03.774Z,63.94
2022-08-30T08:39:30.424Z,63.12
2022-08-30T08:42:04.042Z,62.84
2022-08-30T08:44:44.681Z,62.62
2022-08-30T08:47:20.082Z,62.65
2022-08-30T08:49:51.502Z,63.22
2022-08-30T08:52:48.308Z,63.06
2022-08-30T08:55:20.960Z,62.84
2022-08-30T08:57:48.240Z,62.47
2022-08-30T09:00:15.347Z,62.50
2022-08-30T09:02:45.716Z,62.27
2022-08-30T09:05:20.742Z,61.99
2022-08-30T09:07:57.105Z,61.45
2022-08-30T09:10:47.187Z,61.30
2022-08-30T09:13:13.740Z,61.15
2022-08-30T09:15:40.925Z,60.84
2022-08-30T09:18:19.141Z,60.53
2022-08-30T09:20:49.430Z,59.98
2022-08-30T09:23:16.025Z,59.87
2022-08-30T09:25:52.681Z,59.82
2022-08-30T09:28:26.369Z,58.65
2022-08-30T09:31:17.305Z,59.23
2022-08-30T09:34:03.682Z,58.18
2022-08-30T09:37:00.858Z,57.84
2022-08-30T09:39:35.438Z,57.38
2022-08-30T09:42:26.222Z,57.57
2022-08-30T09:45:10.236Z,57.23
2022-08-30T09:47:41.151Z,56.62
2022-08-30T09:50:09.874Z,56.65
2022-08-30T09:53:00.833Z,56.09
2022-08-30T09:55:36.885Z,56.16
2022-08-30T09:58:09.707Z,56.36
2022-08-30T10:00:45.893Z,56.11
2022-08-30T10:03:36.248Z,56.76
2022-08-30T10:06:21.951Z,56.58
2022-08-30T10:09:04.749Z,55.85
2022-08-30T10:12:01.728Z,55.68
2022-08-30T10:14:46.861Z,54.71
2022-08-30T10:17:31.320Z,54.46
2022-08-30T10:20:12.390Z,54.11
2022-08-30T10:23:06.270Z,53.79
2022-08-30T10:25:41.802Z,52.99
2022-08-30T10:28:11.580Z,52.40
2022-08-30T10:30:42.468Z,51.76
2022-08-30T10:33:15.182Z,50.87
2022-08-30T10:35:48.323Z,49.80
2022-08-30T10:38:23.712Z,49.60
2022-08-30T10:41:13.709Z,49.42
2022-08-30T10:44:05.914Z,48.06
2022-08-30T10:46:39.754Z,47.76
2022-08-30T10:49:14.230Z,47.23
2022-08-30T10:51:52.885Z,46.68
2022-08-30T10:54:29.007Z,46.42
2022-08-30T10:56:56.334Z,46.22
2022-08-30T10:59:23.197Z,46.22
2022-08-30T11:02:28.815Z,44.98
2022-08-30T11:05:08.088Z,44.52
2022-08-30T11:07:46.680Z,44.08
2022-08-30T11:10:32.271Z,43.60
2022-08-30T11:13:08.748Z,43.68
2022-08-30T11:15:52.167Z,43.50
2022-08-30T11:18:20.299Z,42.97
2022-08-30T11:20:53.255Z,41.73
2022-08-30T11:23:32.850Z,43.03
2022-08-30T11:26:08.679Z,43.68
2022-08-30T11:29:01.061Z,43.23
2022-08-30T11:31:35.420Z,43.66
2022-08-30T11:34:02.758Z,42.83
2022-08-30T11:36:37.491Z,42.80
2022-08-30T11:39:07.496Z,42.67
2022-08-30T11:41:46.147Z,42.20
2022-08-30T11:44:34.980Z,42.12
2022-08-30T11:47:22.929Z,41.99
2022-08-30T11:50:09.905Z,41.69
2022-08-30T11:52:41.624Z,40.79
2022-08-30T11:55:16.831Z,40.34
2022-08-30T11:57:53.822Z,41.05
2022-08-30T12:00:31.304Z,41.52
2022-08-30T12:03:04.372Z,40.92
2022-08-30T12:05:41.063Z,40.12
2022-08-30T12:08:28.483Z,39.70
2022-08-30T12:11:05.272Z,39.54
2022-08-30T12:13:34.694Z,40.18
2022-08-30T12:16:09.424Z,40.27
2022-08-30T12:18:39.214Z,39.88
2022-08-30T12:21:15.696Z,40.71
2022-08-30T12:23:54.467Z,40.06
2022-08-30T12:26:25.141Z,41.22
2022-08-30T12:29:05.075Z,41.41
2022-08-30T12:31:32.338Z,41.55
2022-08-30T12:34:03.158Z,40.92
2022-08-30T12:36:49.067Z,41.47
2022-08-30T12:39:19.216Z,41.21
2022-08-30T12:41:46.034Z,41.59
2022-08-30T12:44:25.350Z,41.90
2022-08-30T12:46:59.885Z,40.71
2022-08-30T12:49:30.293Z,41.00
2022-08-30T12:52:20.511Z,41.27
2022-08-30T12:54:47.756Z,41.02
2022-08-30T12:57:32.086Z,41.29
2022-08-30T13:00:02.331Z,41.34
2022-08-30T13:02:46.135Z,41.53
2022-08-30T13:05:45.049Z,41.89
2022-08-30T13:08:36.669Z,41.56
2022-08-30T13:11:10.994Z,41.35
2022-08-30T13:13:37.721Z,41.71
2022-08-30T13:16:12.643Z,41.68
2022-08-30T13:18:39.658Z,40.94
2022-08-30T13:21:20.130Z,40.54
2022-08-30T13:23:48.517Z,40.90
2022-08-30T13:26:23.171Z,40.00
2022-08-30T13:28:58.759Z,39.70
2022-08-30T13:31:27.295Z,38.98
2022-08-30T13:33:55.227Z,38.21
2022-08-30T13:36:24.947Z,38.63
2022-08-30T13:38:52.265Z,37.97
2022-08-30T13:41:20.795Z,36.96
2022-08-30T13:46:35.892Z,36.80
2022-08-30T13:49:06.268Z,36.93
2022-08-30T13:51:33.467Z,37.05
2022-08-30T13:54:02.538Z,36.59
2022-08-30T13:56:32.106Z,36.34
2022-08-30T13:59:00.346Z,36.08
2022-08-30T14:01:30.176Z,36.42
2022-08-30T14:04:16.750Z,35.84
2022-08-30T14:09:31.287Z,36.22
2022-08-30T14:11:58.218Z,36.88
2022-08-30T14:14:41.880Z,37.37
2022-08-30T14:17:09.565Z,36.48
2022-08-30T14:19:36.468Z,36.30
2022-08-30T14:22:03.254Z,36.38
2022-08-30T14:24:29.845Z,35.73
2022-08-30T14:26:56.532Z,35.53
2022-08-30T14:29:26.188Z,35.38
2022-08-30T14:31:53.445Z,35.87
2022-08-30T14:34:21.374Z,36.00
2022-08-30T14:36:47.963Z,36.27
2022-08-30T14:39:18.031Z,35.44
2022-08-30T14:41:51.504Z,35.43
2022-08-30T14:44:19.854Z,35.77
2022-08-30T14:46:47.103Z,35.71
2022-08-30T14:49:14.882Z,36.07
2022-08-30T14:51:42.818Z,35.47
2022-08-30T14:54:10.087Z,35.15
2022-08-30T14:56:37.635Z,34.54
2022-08-30T14:59:04.417Z,34.65
2022-08-30T15:01:31.984Z,34.32
2022-08-30T15:04:04.027Z,34.46
2022-08-30T15:06:36.462Z,35.23
2022-08-30T15:09:04.900Z,35.44
2022-08-30T15:11:31.496Z,35.83
2022-08-30T15:14:00.327Z,36.22
2022-08-30T15:16:31.534Z,36.80
2022-08-30T15:18:59.418Z,37.06
2022-08-30T15:21:31.105Z,37.60
2022-08-30T15:24:01.782Z,37.42
2022-08-30T15:26:28.768Z,37.38
2022-08-30T15:28:55.930Z,37.49
2022-08-30T15:31:28.517Z,36.91
2022-08-30T15:33:55.759Z,37.09
2022-08-30T15:36:24.184Z,37.65
2022-08-30T15:38:55.388Z,37.42
2022-08-30T15:41:22.820Z,37.35
2022-08-30T15:43:49.884Z,37.71
2022-08-30T15:46:22.691Z,37.75
2022-08-30T15:48:52.129Z,38.31
2022-08-30T15:51:19.592Z,38.87
2022-08-30T15:53:46.477Z,38.92
2022-08-30T15:56:13.861Z,38.84
2022-08-30T15:58:40.913Z,38.94
2022-08-30T16:01:09.069Z,38.96
2022-08-30T16:03:37.852Z,39.37
2022-08-30T16:06:04.751Z,39.60
2022-08-30T16:08:31.458Z,40.19
2022-08-30T16:10:58.138Z,40.36
2022-08-30T16:13:24.708Z,40.43
2022-08-30T16:15:51.381Z,40.88
2022-08-30T16:18:18.083Z,41.15
2022-08-30T16:20:44.724Z,41.38
2022-08-30T16:23:12.064Z,41.78
2022-08-30T16:25:40.772Z,41.85
2022-08-30T16:28:09.384Z,42.25
2022-08-30T16:30:36.465Z,42.45
2022-08-30T16:33:03.072Z,42.91
2022-08-30T16:35:29.700Z,43.34
2022-08-30T16:37:56.302Z,43.48
2022-08-30T16:40:22.946Z,43.58
2022-08-30T16:42:50.702Z,44.30
2022-08-30T16:45:17.992Z,44.43
2022-08-30T16:47:45.994Z,44.73
2022-08-30T16:50:13.252Z,44.39
2022-08-30T16:52:43.992Z,44.91
2022-08-30T16:55:10.926Z,45.37
2022-08-30T16:57:38.621Z,45.11
2022-08-30T17:00:08.244Z,45.86
2022-08-30T17:02:40.395Z,46.22
2022-08-30T17:05:12.409Z,45.84
2022-08-30T17:07:39.910Z,46.22
2022-08-30T17:10:06.999Z,46.18
2022-08-30T17:12:35.683Z,46.54
2022-08-30T17:15:05.518Z,46.39
2022-08-30T17:17:32.780Z,46.83
2022-08-30T17:19:59.393Z,46.55
2022-08-30T17:22:26.275Z,47.27
2022-08-30T17:24:53.125Z,47.01
2022-08-30T17:27:19.930Z,47.22
2022-08-30T17:29:48.069Z,47.85
2022-08-30T17:32:14.821Z,47.84
2022-08-30T17:34:41.499Z,47.13
2022-08-30T17:37:08.364Z,47.79
2022-08-30T17:39:34.986Z,47.63
2022-08-30T17:42:03.104Z,47.72
2022-08-30T17:44:32.859Z,47.91
2022-08-30T17:47:00.590Z,47.91
2022-08-30T17:49:29.416Z,48.49
2022-08-30T17:51:57.281Z,48.63
2022-08-30T17:54:29.412Z,48.95
2022-08-30T17:56:56.984Z,48.65
2022-08-30T17:59:25.708Z,48.45
2022-08-30T18:01:53.693Z,48.52
2022-08-30T18:04:21.456Z,48.39
2022-08-30T18:06:51.910Z,47.83
2022-08-30T18:09:18.869Z,47.28
2022-08-30T18:11:45.595Z,46.80
2022-08-30T18:14:15.436Z,46.38
2022-08-30T18:16:49.989Z,46.63
2022-08-30T18:19:30.367Z,45.99
2022-08-30T18:21:57.022Z,45.69
2022-08-30T18:24:24.946Z,45.47
2022-08-30T18:26:51.732Z,45.69
2022-08-30T18:29:26.367Z,45.63
2022-08-30T18:31:59.543Z,45.83
2022-08-30T18:34:26.470Z,45.92
2022-08-30T18:36:53.811Z,46.15
2022-08-30T18:39:21.957Z,45.97
2022-08-30T18:44:27.718Z,45.76
2022-08-30T18:46:56.615Z,45.72
2022-08-30T18:49:24.176Z,45.57
2022-08-30T18:51:50.807Z,45.43
2022-08-30T18:54:17.396Z,45.49
2022-08-30T18:56:45.887Z,45.63
2022-08-30T18:59:12.887Z,45.66
2022-08-30T19:01:40.514Z,45.98
2022-08-30T19:04:07.774Z,45.79
2022-08-30T19:06:34.804Z,45.55
2022-08-30T19:09:09.020Z,45.58
2022-08-30T19:11:36.397Z,45.47
2022-08-30T19:14:05.413Z,45.73
2022-08-30T19:16:34.467Z,45.84
2022-08-30T19:19:03.149Z,46.09
2022-08-30T19:21:30.092Z,45.92
2022-08-30T19:23:58.351Z,46.35
2022-08-30T19:26:27.433Z,46.11
2022-08-30T19:28:54.325Z,45.83
2022-08-30T19:31:20.958Z,45.73
2022-08-30T19:33:47.630Z,45.74
2022-08-30T19:36:14.358Z,45.98
2022-08-30T19:38:44.315Z,45.73
2022-08-30T19:41:12.488Z,45.95
2022-08-30T19:43:40.256Z,45.98
2022-08-30T19:46:08.079Z,46.38
2022-08-30T19:48:39.041Z,46.60
2022-08-30T19:51:14.397Z,47.11
2022-08-30T19:53:42.124Z,47.12
2022-08-30T19:56:08.784Z,47.23
2022-08-30T19:58:35.518Z,47.58
2022-08-30T20:03:49.470Z,47.46
2022-08-30T20:06:19.215Z,47.57
2022-08-30T20:08:47.237Z,47.65
2022-08-30T20:11:19.976Z,47.85
2022-08-30T20:13:47.947Z,48.08
2022-08-30T20:16:15.509Z,48.23
2022-08-30T20:18:43.349Z,48.58
2022-08-30T20:21:13.456Z,48.74
2022-08-30T20:23:42.042Z,48.81
2022-08-30T20:26:11.195Z,48.39
2022-08-30T20:28:38.877Z,48.26
2022-08-30T20:31:06.832Z,48.35
2022-08-30T20:33:38.932Z,48.35
2022-08-30T20:36:07.799Z,48.53
2022-08-30T20:38:34.462Z,48.65
2022-08-30T20:41:02.735Z,48.83
2022-08-30T20:43:30.669Z,49.09
2022-08-30T20:45:57.590Z,48.75
2022-08-30T20:48:27.056Z,48.65
2022-08-30T20:50:53.642Z,48.66
2022-08-30T20:53:20.331Z,48.39
2022-08-30T20:55:47.722Z,48.55
2022-08-30T20:58:14.447Z,48.44
2022-08-30T21:00:45.878Z,48.31
2022-08-30T21:03:25.873Z,48.25
2022-08-30T21:05:55.485Z,48.15
2022-08-30T21:08:22.201Z,48.14
2022-08-30T21:10:48.886Z,48.34
2022-08-30T21:13:15.748Z,48.39
2022-08-30T21:15:46.095Z,48.35
2022-08-30T21:18:13.956Z,48.26
2022-08-30T21:20:41.026Z,48.11
2022-08-30T21:23:07.837Z,48.58
2022-08-30T21:25:38.265Z,48.55
2022-08-30T21:28:04.862Z,48.36
2022-08-30T21:30:31.586Z,48.57
2022-08-30T21:32:59.966Z,48.28
2022-08-30T21:35:46.185Z,48.65
2022-08-30T21:38:12.913Z,48.58
2022-08-30T21:40:39.810Z,48.84
2022-08-30T21:43:07.546Z,48.91
2022-08-30T21:45:42.215Z,49.29
2022-08-30T21:48:10.365Z,49.41
2022-08-30T21:50:42.731Z,49.44
2022-08-30T21:53:10.030Z,49.47
2022-08-30T21:55:36.764Z,49.66
2022-08-30T21:58:03.733Z,49.52
2022-08-30T22:00:31.809Z,49.68
2022-08-30T22:02:58.490Z,49.48
2022-08-30T22:05:25.194Z,49.91
2022-08-30T22:07:51.784Z,49.89
2022-08-30T22:10:19.684Z,49.99
2022-08-30T22:12:46.624Z,49.67
2022-08-30T22:15:14.288Z,49.71
2022-08-30T22:17:41.219Z,49.68
2022-08-30T22:20:08.575Z,49.76
2022-08-30T22:22:35.247Z,50.03
2022-08-30T22:25:01.851Z,49.85
2022-08-30T22:27:31.265Z,49.85
2022-08-30T22:29:58.148Z,50.19
2022-08-30T22:32:24.760Z,50.07
2022-08-30T22:34:51.588Z,50.29
2022-08-30T22:37:18.371Z,50.49
2022-08-30T22:39:45.013Z,50.66
2022-08-30T22:42:11.663Z,50.74
2022-08-30T22:44:38.358Z,50.78
2022-08-30T22:47:05.155Z,51.26
2022-08-30T22:49:31.916Z,51.28
2022-08-30T22:51:58.514Z,51.56
2022-08-30T22:54:25.094Z,51.77
2022-08-30T22:56:51.666Z,52.08
2022-08-30T22:59:18.262Z,52.39
2022-08-30T23:01:45.435Z,52.83
2022-08-30T23:04:12.875Z,52.92
2022-08-30T23:06:40.594Z,53.25
2022-08-30T23:09:07.742Z,53.37
2022-08-30T23:11:36.597Z,53.16
2022-08-30T23:14:05.146Z,53.64
2022-08-30T23:16:32.899Z,53.88
2022-08-30T23:18:59.739Z,54.17
2022-08-30T23:21:28.454Z,54.57
2022-08-30T23:24:15.188Z,54.90
2022-08-30T23:27:03.002Z,54.64
2022-08-30T23:29:48.662Z,55.42
2022-08-30T23:32:33.968Z,55.48
2022-08-30T23:35:19.232Z,56.11
2022-08-30T23:38:05.059Z,56.46
2022-08-30T23:40:50.223Z,57.08
2022-08-30T23:43:35.447Z,56.74
2022-08-30T23:46:20.660Z,57.39
2022-08-30T23:49:07.436Z,57.50
2022-08-30T23:51:53.134Z,57.86
2022-08-30T23:54:38.262Z,58.47
2022-08-30T23:57:24.168Z,58.57
